sensor_id;sensor_type;location;lat;lon;timestamp;P1;durP1;ratioP1;P2;durP2;ratioP2
6131;SDS011;3097;42.692;23.278;2023-06-26T00:00:44;22.63;;;15.63;;
6131;SDS011;3097;42.692;23.278;2023-06-26T00:03:09;22.37;;;16.13;;
6131;SDS011;3097;42.692;23.278;2023-06-26T00:05:40;21.43;;;16.20;;
6131;SDS011;3097;42.692;23.278;2023-06-26T00:08:07;22.27;;;14.73;;
6131;SDS011;3097;42.692;23.278;2023-06-26T00:10:32;20.37;;;15.37;;
6131;SDS011;3097;42.692;23.278;2023-06-26T00:12:57;19.03;;;14.80;;
6131;SDS011;3097;42.692;23.278;2023-06-26T00:15:23;19.43;;;14.20;;
6131;SDS011;3097;42.692;23.278;2023-06-26T00:17:49;19.27;;;15.03;;
6131;SDS011;3097;42.692;23.278;2023-06-26T00:20:16;17.70;;;14.73;;
6131;SDS011;3097;42.692;23.278;2023-06-26T00:22:41;19.63;;;14.87;;
6131;SDS011;3097;42.692;23.278;2023-06-26T00:25:07;17.33;;;14.43;;
6131;SDS011;3097;42.692;23.278;2023-06-26T00:27:33;18.00;;;14.20;;
6131;SDS011;3097;42.692;23.278;2023-06-26T00:29:58;19.90;;;14.57;;
6131;SDS011;3097;42.692;23.278;2023-06-26T00:32:23;16.87;;;14.00;;
6131;SDS011;3097;42.692;23.278;2023-06-26T00:34:50;15.90;;;13.67;;
6131;SDS011;3097;42.692;23.278;2023-06-26T00:37:17;17.23;;;13.47;;
6131;SDS011;3097;42.692;23.278;2023-06-26T00:39:42;18.03;;;13.50;;
6131;SDS011;3097;42.692;23.278;2023-06-26T00:42:08;14.57;;;12.90;;
6131;SDS011;3097;42.692;23.278;2023-06-26T00:44:33;16.43;;;13.57;;
6131;SDS011;3097;42.692;23.278;2023-06-26T00:46:59;16.97;;;12.90;;
6131;SDS011;3097;42.692;23.278;2023-06-26T00:49:25;15.47;;;13.33;;
6131;SDS011;3097;42.692;23.278;2023-06-26T00:51:51;16.13;;;12.67;;
6131;SDS011;3097;42.692;23.278;2023-06-26T00:54:16;14.93;;;12.87;;
6131;SDS011;3097;42.692;23.278;2023-06-26T00:56:45;18.93;;;12.97;;
6131;SDS011;3097;42.692;23.278;2023-06-26T00:59:12;16.57;;;12.90;;
6131;SDS011;3097;42.692;23.278;2023-06-26T01:01:38;14.57;;;12.13;;
6131;SDS011;3097;42.692;23.278;2023-06-26T01:04:04;15.47;;;12.27;;
6131;SDS011;3097;42.692;23.278;2023-06-26T01:06:30;16.17;;;12.53;;
6131;SDS011;3097;42.692;23.278;2023-06-26T01:09:00;14.73;;;13.00;;
6131;SDS011;3097;42.692;23.278;2023-06-26T01:11:27;13.87;;;12.43;;
6131;SDS011;3097;42.692;23.278;2023-06-26T01:13:52;17.67;;;13.07;;
6131;SDS011;3097;42.692;23.278;2023-06-26T01:16:20;17.10;;;13.30;;
6131;SDS011;3097;42.692;23.278;2023-06-26T01:18:47;15.67;;;12.93;;
6131;SDS011;3097;42.692;23.278;2023-06-26T01:21:13;17.13;;;13.27;;
6131;SDS011;3097;42.692;23.278;2023-06-26T01:23:55;19.23;;;12.47;;
6131;SDS011;3097;42.692;23.278;2023-06-26T01:26:52;16.33;;;13.30;;
6131;SDS011;3097;42.692;23.278;2023-06-26T01:29:19;14.00;;;12.57;;
6131;SDS011;3097;42.692;23.278;2023-06-26T01:31:48;16.17;;;13.23;;
6131;SDS011;3097;42.692;23.278;2023-06-26T01:34:15;15.33;;;13.20;;
6131;SDS011;3097;42.692;23.278;2023-06-26T01:36:42;17.73;;;13.07;;
6131;SDS011;3097;42.692;23.278;2023-06-26T01:39:07;15.50;;;12.93;;
6131;SDS011;3097;42.692;23.278;2023-06-26T01:41:33;15.93;;;12.33;;
6131;SDS011;3097;42.692;23.278;2023-06-26T01:54:52;15.93;;;13.43;;
6131;SDS011;3097;42.692;23.278;2023-06-26T01:57:21;19.43;;;13.40;;
6131;SDS011;3097;42.692;23.278;2023-06-26T01:59:48;16.63;;;12.67;;
6131;SDS011;3097;42.692;23.278;2023-06-26T02:02:14;15.20;;;13.60;;
6131;SDS011;3097;42.692;23.278;2023-06-26T02:04:39;15.60;;;12.80;;
6131;SDS011;3097;42.692;23.278;2023-06-26T02:07:06;15.47;;;13.10;;
6131;SDS011;3097;42.692;23.278;2023-06-26T02:09:31;15.43;;;13.40;;
6131;SDS011;3097;42.692;23.278;2023-06-26T02:11:57;15.87;;;13.40;;
6131;SDS011;3097;42.692;23.278;2023-06-26T02:14:22;17.30;;;13.43;;
6131;SDS011;3097;42.692;23.278;2023-06-26T02:16:47;16.50;;;14.20;;
6131;SDS011;3097;42.692;23.278;2023-06-26T02:19:13;17.43;;;14.13;;
6131;SDS011;3097;42.692;23.278;2023-06-26T02:21:46;17.70;;;14.13;;
6131;SDS011;3097;42.692;23.278;2023-06-26T02:24:13;17.27;;;14.33;;
6131;SDS011;3097;42.692;23.278;2023-06-26T02:26:38;17.47;;;14.97;;
6131;SDS011;3097;42.692;23.278;2023-06-26T02:29:04;18.77;;;15.03;;
6131;SDS011;3097;42.692;23.278;2023-06-26T02:31:29;23.73;;;15.70;;
6131;SDS011;3097;42.692;23.278;2023-06-26T02:33:55;20.47;;;16.03;;
6131;SDS011;3097;42.692;23.278;2023-06-26T02:36:20;19.80;;;15.57;;
6131;SDS011;3097;42.692;23.278;2023-06-26T02:38:45;20.37;;;16.57;;
6131;SDS011;3097;42.692;23.278;2023-06-26T02:41:11;21.30;;;15.93;;
6131;SDS011;3097;42.692;23.278;2023-06-26T02:43:36;20.23;;;16.10;;
6131;SDS011;3097;42.692;23.278;2023-06-26T02:46:02;17.93;;;15.63;;
6131;SDS011;3097;42.692;23.278;2023-06-26T02:48:27;20.03;;;15.40;;
6131;SDS011;3097;42.692;23.278;2023-06-26T02:50:53;20.47;;;16.60;;
6131;SDS011;3097;42.692;23.278;2023-06-26T02:53:18;20.87;;;15.73;;
6131;SDS011;3097;42.692;23.278;2023-06-26T02:55:43;20.70;;;15.77;;
6131;SDS011;3097;42.692;23.278;2023-06-26T02:58:09;19.60;;;16.30;;
6131;SDS011;3097;42.692;23.278;2023-06-26T03:00:34;20.90;;;15.50;;
6131;SDS011;3097;42.692;23.278;2023-06-26T03:03:00;19.33;;;16.13;;
6131;SDS011;3097;42.692;23.278;2023-06-26T03:05:25;22.47;;;16.30;;
6131;SDS011;3097;42.692;23.278;2023-06-26T03:07:51;22.57;;;17.00;;
6131;SDS011;3097;42.692;23.278;2023-06-26T03:10:16;21.20;;;16.63;;
6131;SDS011;3097;42.692;23.278;2023-06-26T03:12:42;23.13;;;17.00;;
6131;SDS011;3097;42.692;23.278;2023-06-26T03:15:07;21.63;;;16.83;;
6131;SDS011;3097;42.692;23.278;2023-06-26T03:17:33;24.23;;;17.20;;
6131;SDS011;3097;42.692;23.278;2023-06-26T03:19:59;22.97;;;17.10;;
6131;SDS011;3097;42.692;23.278;2023-06-26T03:22:24;21.80;;;16.83;;
6131;SDS011;3097;42.692;23.278;2023-06-26T03:24:49;21.53;;;16.97;;
6131;SDS011;3097;42.692;23.278;2023-06-26T03:27:15;21.90;;;16.87;;
6131;SDS011;3097;42.692;23.278;2023-06-26T03:29:40;22.13;;;17.30;;
6131;SDS011;3097;42.692;23.278;2023-06-26T03:32:06;21.37;;;16.67;;
6131;SDS011;3097;42.692;23.278;2023-06-26T03:34:32;24.90;;;18.10;;
6131;SDS011;3097;42.692;23.278;2023-06-26T03:36:57;22.53;;;17.13;;
6131;SDS011;3097;42.692;23.278;2023-06-26T03:39:23;23.33;;;17.73;;
6131;SDS011;3097;42.692;23.278;2023-06-26T03:41:48;26.30;;;18.23;;
6131;SDS011;3097;42.692;23.278;2023-06-26T03:44:14;22.87;;;16.60;;
6131;SDS011;3097;42.692;23.278;2023-06-26T03:46:40;23.67;;;18.67;;
6131;SDS011;3097;42.692;23.278;2023-06-26T03:49:05;23.17;;;17.00;;
6131;SDS011;3097;42.692;23.278;2023-06-26T03:51:31;21.33;;;16.50;;
6131;SDS011;3097;42.692;23.278;2023-06-26T03:53:56;22.33;;;17.73;;
6131;SDS011;3097;42.692;23.278;2023-06-26T03:56:22;20.40;;;16.20;;
6131;SDS011;3097;42.692;23.278;2023-06-26T03:58:47;19.90;;;16.70;;
6131;SDS011;3097;42.692;23.278;2023-06-26T04:01:12;21.60;;;16.10;;
6131;SDS011;3097;42.692;23.278;2023-06-26T04:03:38;22.50;;;17.33;;
6131;SDS011;3097;42.692;23.278;2023-06-26T04:06:03;21.90;;;16.07;;
6131;SDS011;3097;42.692;23.278;2023-06-26T04:08:29;32.50;;;21.50;;
6131;SDS011;3097;42.692;23.278;2023-06-26T04:10:54;24.17;;;17.50;;
6131;SDS011;3097;42.692;23.278;2023-06-26T04:13:22;21.90;;;16.53;;
6131;SDS011;3097;42.692;23.278;2023-06-26T04:15:47;19.60;;;16.13;;
6131;SDS011;3097;42.692;23.278;2023-06-26T04:18:13;18.53;;;14.93;;
6131;SDS011;3097;42.692;23.278;2023-06-26T04:20:39;17.13;;;14.83;;
6131;SDS011;3097;42.692;23.278;2023-06-26T04:23:25;22.13;;;15.20;;
6131;SDS011;3097;42.692;23.278;2023-06-26T04:25:51;17.03;;;15.23;;
6131;SDS011;3097;42.692;23.278;2023-06-26T04:28:19;16.00;;;14.30;;
6131;SDS011;3097;42.692;23.278;2023-06-26T04:30:44;18.17;;;13.93;;
6131;SDS011;3097;42.692;23.278;2023-06-26T04:33:10;16.17;;;14.47;;
6131;SDS011;3097;42.692;23.278;2023-06-26T04:35:37;16.00;;;14.27;;
6131;SDS011;3097;42.692;23.278;2023-06-26T04:38:02;16.23;;;13.80;;
6131;SDS011;3097;42.692;23.278;2023-06-26T04:40:27;16.37;;;14.37;;
6131;SDS011;3097;42.692;23.278;2023-06-26T04:42:53;15.00;;;13.27;;
6131;SDS011;3097;42.692;23.278;2023-06-26T04:45:18;20.43;;;15.50;;
6131;SDS011;3097;42.692;23.278;2023-06-26T04:47:47;15.57;;;13.80;;
6131;SDS011;3097;42.692;23.278;2023-06-26T04:50:12;14.80;;;13.30;;
6131;SDS011;3097;42.692;23.278;2023-06-26T04:52:38;14.67;;;13.07;;
6131;SDS011;3097;42.692;23.278;2023-06-26T04:55:03;15.47;;;13.87;;
6131;SDS011;3097;42.692;23.278;2023-06-26T04:57:29;15.40;;;13.80;;
6131;SDS011;3097;42.692;23.278;2023-06-26T04:59:54;17.97;;;13.43;;
6131;SDS011;3097;42.692;23.278;2023-06-26T05:02:20;14.63;;;13.13;;
6131;SDS011;3097;42.692;23.278;2023-06-26T05:04:45;14.93;;;13.43;;
6131;SDS011;3097;42.692;23.278;2023-06-26T05:07:12;15.57;;;13.57;;
6131;SDS011;3097;42.692;23.278;2023-06-26T05:09:37;14.87;;;13.37;;
6131;SDS011;3097;42.692;23.278;2023-06-26T05:12:03;15.73;;;13.43;;
6131;SDS011;3097;42.692;23.278;2023-06-26T05:14:28;14.03;;;12.63;;
6131;SDS011;3097;42.692;23.278;2023-06-26T05:16:54;18.07;;;13.37;;
6131;SDS011;3097;42.692;23.278;2023-06-26T05:19:19;14.23;;;12.73;;
6131;SDS011;3097;42.692;23.278;2023-06-26T05:21:45;15.77;;;12.87;;
6131;SDS011;3097;42.692;23.278;2023-06-26T05:24:11;16.87;;;12.47;;
6131;SDS011;3097;42.692;23.278;2023-06-26T05:26:38;14.17;;;12.77;;
6131;SDS011;3097;42.692;23.278;2023-06-26T05:29:04;14.83;;;13.17;;
6131;SDS011;3097;42.692;23.278;2023-06-26T05:31:30;15.07;;;13.50;;
6131;SDS011;3097;42.692;23.278;2023-06-26T05:34:01;15.33;;;13.50;;
6131;SDS011;3097;42.692;23.278;2023-06-26T05:36:28;15.57;;;13.60;;
6131;SDS011;3097;42.692;23.278;2023-06-26T05:38:58;18.10;;;14.77;;
6131;SDS011;3097;42.692;23.278;2023-06-26T05:41:23;23.13;;;16.47;;
6131;SDS011;3097;42.692;23.278;2023-06-26T05:43:50;22.40;;;16.33;;
6131;SDS011;3097;42.692;23.278;2023-06-26T05:46:16;17.37;;;14.60;;
6131;SDS011;3097;42.692;23.278;2023-06-26T05:48:41;17.27;;;14.83;;
6131;SDS011;3097;42.692;23.278;2023-06-26T05:51:07;16.37;;;13.47;;
6131;SDS011;3097;42.692;23.278;2023-06-26T05:53:33;15.83;;;13.00;;
6131;SDS011;3097;42.692;23.278;2023-06-26T05:55:58;14.57;;;13.10;;
6131;SDS011;3097;42.692;23.278;2023-06-26T05:58:25;18.63;;;13.10;;
6131;SDS011;3097;42.692;23.278;2023-06-26T06:00:54;15.40;;;12.73;;
6131;SDS011;3097;42.692;23.278;2023-06-26T06:03:20;13.80;;;12.40;;
6131;SDS011;3097;42.692;23.278;2023-06-26T06:05:46;13.60;;;12.30;;
6131;SDS011;3097;42.692;23.278;2023-06-26T06:08:11;13.53;;;12.10;;
6131;SDS011;3097;42.692;23.278;2023-06-26T06:10:37;13.90;;;12.57;;
6131;SDS011;3097;42.692;23.278;2023-06-26T06:13:02;13.67;;;12.20;;
6131;SDS011;3097;42.692;23.278;2023-06-26T06:15:28;13.77;;;12.40;;
6131;SDS011;3097;42.692;23.278;2023-06-26T06:17:56;14.13;;;12.67;;
6131;SDS011;3097;42.692;23.278;2023-06-26T06:20:21;13.60;;;12.20;;
6131;SDS011;3097;42.692;23.278;2023-06-26T06:22:46;16.03;;;12.30;;
6131;SDS011;3097;42.692;23.278;2023-06-26T06:25:13;14.53;;;11.70;;
6131;SDS011;3097;42.692;23.278;2023-06-26T06:27:39;12.93;;;11.60;;
6131;SDS011;3097;42.692;23.278;2023-06-26T06:30:05;12.90;;;11.60;;
6131;SDS011;3097;42.692;23.278;2023-06-26T06:32:31;13.73;;;12.33;;
6131;SDS011;3097;42.692;23.278;2023-06-26T06:34:56;13.43;;;12.03;;
6131;SDS011;3097;42.692;23.278;2023-06-26T06:37:22;11.33;;;10.40;;
6131;SDS011;3097;42.692;23.278;2023-06-26T06:39:48;13.23;;;11.87;;
6131;SDS011;3097;42.692;23.278;2023-06-26T06:42:13;11.90;;;10.80;;
6131;SDS011;3097;42.692;23.278;2023-06-26T06:44:38;11.10;;;10.10;;
6131;SDS011;3097;42.692;23.278;2023-06-26T06:47:04;12.20;;;10.90;;
6131;SDS011;3097;42.692;23.278;2023-06-26T06:49:29;11.33;;;10.33;;
6131;SDS011;3097;42.692;23.278;2023-06-26T06:51:55;10.83;;;10.03;;
6131;SDS011;3097;42.692;23.278;2023-06-26T06:54:25;13.47;;;11.17;;
6131;SDS011;3097;42.692;23.278;2023-06-26T06:56:52;12.40;;;11.30;;
6131;SDS011;3097;42.692;23.278;2023-06-26T06:59:18;12.07;;;10.93;;
6131;SDS011;3097;42.692;23.278;2023-06-26T07:01:43;11.90;;;10.90;;
6131;SDS011;3097;42.692;23.278;2023-06-26T07:04:08;11.52;;;10.38;;
6131;SDS011;3097;42.692;23.278;2023-06-26T07:06:34;10.97;;;9.97;;
6131;SDS011;3097;42.692;23.278;2023-06-26T07:09:00;10.57;;;9.77;;
6131;SDS011;3097;42.692;23.278;2023-06-26T07:11:25;10.53;;;9.57;;
6131;SDS011;3097;42.692;23.278;2023-06-26T07:13:54;9.73;;;8.83;;
6131;SDS011;3097;42.692;23.278;2023-06-26T07:16:20;9.10;;;8.30;;
6131;SDS011;3097;42.692;23.278;2023-06-26T07:18:46;8.83;;;8.13;;
6131;SDS011;3097;42.692;23.278;2023-06-26T07:21:11;9.17;;;8.43;;
6131;SDS011;3097;42.692;23.278;2023-06-26T07:23:36;9.33;;;8.43;;
6131;SDS011;3097;42.692;23.278;2023-06-26T07:26:02;9.20;;;8.30;;
6131;SDS011;3097;42.692;23.278;2023-06-26T07:28:27;11.87;;;10.80;;
6131;SDS011;3097;42.692;23.278;2023-06-26T07:30:53;9.20;;;8.30;;
6131;SDS011;3097;42.692;23.278;2023-06-26T07:33:18;9.05;;;8.32;;
6131;SDS011;3097;42.692;23.278;2023-06-26T07:35:45;9.70;;;8.70;;
6131;SDS011;3097;42.692;23.278;2023-06-26T07:38:11;11.20;;;9.07;;
6131;SDS011;3097;42.692;23.278;2023-06-26T07:40:36;9.90;;;8.70;;
6131;SDS011;3097;42.692;23.278;2023-06-26T07:43:02;9.30;;;8.53;;
6131;SDS011;3097;42.692;23.278;2023-06-26T07:45:27;10.00;;;9.10;;
6131;SDS011;3097;42.692;23.278;2023-06-26T07:47:53;9.73;;;8.93;;
6131;SDS011;3097;42.692;23.278;2023-06-26T07:50:18;9.45;;;8.65;;
6131;SDS011;3097;42.692;23.278;2023-06-26T07:52:46;9.02;;;8.13;;
6131;SDS011;3097;42.692;23.278;2023-06-26T07:55:12;8.00;;;7.35;;
6131;SDS011;3097;42.692;23.278;2023-06-26T07:57:37;8.77;;;8.07;;
6131;SDS011;3097;42.692;23.278;2023-06-26T08:00:03;9.05;;;7.38;;
6131;SDS011;3097;42.692;23.278;2023-06-26T08:02:31;8.30;;;7.57;;
6131;SDS011;3097;42.692;23.278;2023-06-26T08:04:57;8.20;;;7.47;;
6131;SDS011;3097;42.692;23.278;2023-06-26T08:07:22;7.55;;;7.05;;
6131;SDS011;3097;42.692;23.278;2023-06-26T08:09:48;7.77;;;7.07;;
6131;SDS011;3097;42.692;23.278;2023-06-26T08:12:13;8.10;;;7.50;;
6131;SDS011;3097;42.692;23.278;2023-06-26T08:14:39;9.03;;;8.20;;
6131;SDS011;3097;42.692;23.278;2023-06-26T08:17:04;7.57;;;6.97;;
6131;SDS011;3097;42.692;23.278;2023-06-26T08:19:29;8.40;;;7.60;;
6131;SDS011;3097;42.692;23.278;2023-06-26T08:21:55;7.40;;;6.80;;
6131;SDS011;3097;42.692;23.278;2023-06-26T08:24:20;8.37;;;7.67;;
6131;SDS011;3097;42.692;23.278;2023-06-26T08:26:46;8.47;;;7.67;;
6131;SDS011;3097;42.692;23.278;2023-06-26T08:29:12;7.73;;;7.00;;
6131;SDS011;3097;42.692;23.278;2023-06-26T08:31:38;7.43;;;6.83;;
6131;SDS011;3097;42.692;23.278;2023-06-26T08:34:04;7.30;;;6.70;;
6131;SDS011;3097;42.692;23.278;2023-06-26T08:36:30;8.47;;;7.00;;
6131;SDS011;3097;42.692;23.278;2023-06-26T08:38:56;7.50;;;6.90;;
6131;SDS011;3097;42.692;23.278;2023-06-26T08:41:22;7.87;;;7.17;;
6131;SDS011;3097;42.692;23.278;2023-06-26T08:43:47;7.50;;;6.87;;
6131;SDS011;3097;42.692;23.278;2023-06-26T08:46:14;7.27;;;6.67;;
6131;SDS011;3097;42.692;23.278;2023-06-26T08:48:40;6.77;;;6.30;;
6131;SDS011;3097;42.692;23.278;2023-06-26T08:51:11;7.30;;;6.60;;
6131;SDS011;3097;42.692;23.278;2023-06-26T08:53:49;8.60;;;7.30;;
6131;SDS011;3097;42.692;23.278;2023-06-26T08:56:18;6.90;;;6.30;;
6131;SDS011;3097;42.692;23.278;2023-06-26T08:58:47;7.70;;;6.90;;
6131;SDS011;3097;42.692;23.278;2023-06-26T09:01:13;9.23;;;8.37;;
6131;SDS011;3097;42.692;23.278;2023-06-26T09:03:39;23.03;;;18.57;;
6131;SDS011;3097;42.692;23.278;2023-06-26T09:06:06;8.70;;;8.00;;
6131;SDS011;3097;42.692;23.278;2023-06-26T09:08:32;9.60;;;8.73;;
6131;SDS011;3097;42.692;23.278;2023-06-26T09:10:57;6.70;;;6.20;;
6131;SDS011;3097;42.692;23.278;2023-06-26T09:13:23;8.33;;;6.67;;
6131;SDS011;3097;42.692;23.278;2023-06-26T09:15:49;7.83;;;6.57;;
6131;SDS011;3097;42.692;23.278;2023-06-26T09:18:18;7.67;;;7.03;;
6131;SDS011;3097;42.692;23.278;2023-06-26T09:20:44;7.83;;;7.10;;
6131;SDS011;3097;42.692;23.278;2023-06-26T09:23:10;6.30;;;5.87;;
6131;SDS011;3097;42.692;23.278;2023-06-26T09:25:37;6.90;;;5.70;;
6131;SDS011;3097;42.692;23.278;2023-06-26T09:28:04;11.17;;;6.87;;
6131;SDS011;3097;42.692;23.278;2023-06-26T09:30:31;7.20;;;6.50;;
6131;SDS011;3097;42.692;23.278;2023-06-26T09:32:57;7.43;;;6.73;;
6131;SDS011;3097;42.692;23.278;2023-06-26T09:35:23;7.00;;;6.40;;
6131;SDS011;3097;42.692;23.278;2023-06-26T09:37:49;6.70;;;6.07;;
6131;SDS011;3097;42.692;23.278;2023-06-26T09:40:15;6.30;;;5.90;;
6131;SDS011;3097;42.692;23.278;2023-06-26T09:42:41;5.97;;;5.50;;
6131;SDS011;3097;42.692;23.278;2023-06-26T09:45:07;6.73;;;6.10;;
6131;SDS011;3097;42.692;23.278;2023-06-26T09:47:33;8.83;;;6.47;;
6131;SDS011;3097;42.692;23.278;2023-06-26T09:50:00;7.03;;;6.43;;
6131;SDS011;3097;42.692;23.278;2023-06-26T09:52:28;7.87;;;6.90;;
6131;SDS011;3097;42.692;23.278;2023-06-26T09:55:09;6.90;;;6.30;;
6131;SDS011;3097;42.692;23.278;2023-06-26T09:57:35;7.33;;;5.90;;
6131;SDS011;3097;42.692;23.278;2023-06-26T10:00:04;6.77;;;6.07;;
6131;SDS011;3097;42.692;23.278;2023-06-26T10:02:30;8.90;;;6.30;;
6131;SDS011;3097;42.692;23.278;2023-06-26T10:04:55;6.80;;;6.20;;
6131;SDS011;3097;42.692;23.278;2023-06-26T10:07:21;5.90;;;5.43;;
6131;SDS011;3097;42.692;23.278;2023-06-26T10:09:47;5.57;;;5.17;;
6131;SDS011;3097;42.692;23.278;2023-06-26T10:14:52;8.23;;;6.43;;
6131;SDS011;3097;42.692;23.278;2023-06-26T10:17:20;6.50;;;5.90;;
6131;SDS011;3097;42.692;23.278;2023-06-26T10:19:47;6.70;;;5.97;;
6131;SDS011;3097;42.692;23.278;2023-06-26T10:22:16;6.53;;;6.03;;
6131;SDS011;3097;42.692;23.278;2023-06-26T10:24:42;6.27;;;5.87;;
6131;SDS011;3097;42.692;23.278;2023-06-26T10:27:20;6.70;;;6.17;;
6131;SDS011;3097;42.692;23.278;2023-06-26T10:29:51;6.97;;;5.73;;
6131;SDS011;3097;42.692;23.278;2023-06-26T10:32:20;6.23;;;5.73;;
6131;SDS011;3097;42.692;23.278;2023-06-26T10:34:46;5.40;;;5.03;;
6131;SDS011;3097;42.692;23.278;2023-06-26T10:37:12;6.40;;;5.87;;
6131;SDS011;3097;42.692;23.278;2023-06-26T10:39:48;7.47;;;5.97;;
6131;SDS011;3097;42.692;23.278;2023-06-26T10:42:15;7.37;;;6.57;;
6131;SDS011;3097;42.692;23.278;2023-06-26T10:44:45;6.27;;;5.87;;
6131;SDS011;3097;42.692;23.278;2023-06-26T10:47:12;6.30;;;5.73;;
6131;SDS011;3097;42.692;23.278;2023-06-26T10:49:55;6.53;;;6.03;;
6131;SDS011;3097;42.692;23.278;2023-06-26T10:52:20;6.70;;;6.10;;
6131;SDS011;3097;42.692;23.278;2023-06-26T10:54:46;6.70;;;6.20;;
6131;SDS011;3097;42.692;23.278;2023-06-26T10:57:11;7.90;;;7.30;;
6131;SDS011;3097;42.692;23.278;2023-06-26T10:59:48;10.17;;;8.13;;
6131;SDS011;3097;42.692;23.278;2023-06-26T11:02:14;7.60;;;6.80;;
6131;SDS011;3097;42.692;23.278;2023-06-26T11:04:44;8.80;;;6.37;;
6131;SDS011;3097;42.692;23.278;2023-06-26T11:07:21;6.47;;;5.97;;
6131;SDS011;3097;42.692;23.278;2023-06-26T11:09:58;6.37;;;5.87;;
6131;SDS011;3097;42.692;23.278;2023-06-26T11:15:17;7.80;;;7.00;;
6131;SDS011;3097;42.692;23.278;2023-06-26T11:17:44;6.90;;;6.10;;
6131;SDS011;3097;42.692;23.278;2023-06-26T11:20:11;6.80;;;6.20;;
6131;SDS011;3097;42.692;23.278;2023-06-26T11:22:38;6.83;;;5.87;;
6131;SDS011;3097;42.692;23.278;2023-06-26T11:25:05;5.87;;;5.47;;
6131;SDS011;3097;42.692;23.278;2023-06-26T11:30:07;6.53;;;5.93;;
6131;SDS011;3097;42.692;23.278;2023-06-26T11:32:34;7.77;;;5.67;;
6131;SDS011;3097;42.692;23.278;2023-06-26T11:35:01;6.93;;;6.27;;
6131;SDS011;3097;42.692;23.278;2023-06-26T11:37:26;6.93;;;6.23;;
6131;SDS011;3097;42.692;23.278;2023-06-26T11:39:55;6.40;;;5.90;;
6131;SDS011;3097;42.692;23.278;2023-06-26T11:42:20;7.37;;;6.40;;
6131;SDS011;3097;42.692;23.278;2023-06-26T11:44:46;7.60;;;6.20;;
6131;SDS011;3097;42.692;23.278;2023-06-26T11:49:42;8.67;;;6.13;;
6131;SDS011;3097;42.692;23.278;2023-06-26T11:52:08;7.30;;;5.90;;
6131;SDS011;3097;42.692;23.278;2023-06-26T11:54:34;8.40;;;6.57;;
6131;SDS011;3097;42.692;23.278;2023-06-26T11:56:59;6.87;;;6.17;;
6131;SDS011;3097;42.692;23.278;2023-06-26T11:59:35;6.03;;;5.63;;
6131;SDS011;3097;42.692;23.278;2023-06-26T12:02:13;6.87;;;6.20;;
6131;SDS011;3097;42.692;23.278;2023-06-26T12:04:43;8.67;;;6.40;;
6131;SDS011;3097;42.692;23.278;2023-06-26T12:07:09;6.73;;;6.03;;
6131;SDS011;3097;42.692;23.278;2023-06-26T12:09:45;7.30;;;6.67;;
6131;SDS011;3097;42.692;23.278;2023-06-26T12:12:13;6.40;;;5.77;;
6131;SDS011;3097;42.692;23.278;2023-06-26T12:14:40;6.70;;;6.00;;
6131;SDS011;3097;42.692;23.278;2023-06-26T12:17:09;6.03;;;5.53;;
6131;SDS011;3097;42.692;23.278;2023-06-26T12:19:39;6.13;;;5.50;;
6131;SDS011;3097;42.692;23.278;2023-06-26T12:22:08;6.40;;;5.90;;
6131;SDS011;3097;42.692;23.278;2023-06-26T12:24:38;6.57;;;5.93;;
6131;SDS011;3097;42.692;23.278;2023-06-26T12:27:11;6.00;;;5.50;;
6131;SDS011;3097;42.692;23.278;2023-06-26T12:29:38;9.83;;;8.23;;
6131;SDS011;3097;42.692;23.278;2023-06-26T12:32:08;7.40;;;6.80;;
6131;SDS011;3097;42.692;23.278;2023-06-26T12:34:35;6.87;;;6.33;;
6131;SDS011;3097;42.692;23.278;2023-06-26T12:37:09;10.13;;;6.73;;
6131;SDS011;3097;42.692;23.278;2023-06-26T12:42:22;9.33;;;7.80;;
6131;SDS011;3097;42.692;23.278;2023-06-26T12:44:48;7.90;;;6.93;;
6131;SDS011;3097;42.692;23.278;2023-06-26T12:47:15;8.67;;;7.20;;
6131;SDS011;3097;42.692;23.278;2023-06-26T12:49:43;9.07;;;6.33;;
6131;SDS011;3097;42.692;23.278;2023-06-26T12:52:10;7.03;;;6.40;;
6131;SDS011;3097;42.692;23.278;2023-06-26T12:54:40;8.93;;;6.70;;
6131;SDS011;3097;42.692;23.278;2023-06-26T12:57:06;7.00;;;6.40;;
6131;SDS011;3097;42.692;23.278;2023-06-26T12:59:33;6.80;;;6.23;;
6131;SDS011;3097;42.692;23.278;2023-06-26T13:02:00;8.00;;;7.30;;
6131;SDS011;3097;42.692;23.278;2023-06-26T13:04:26;7.43;;;6.83;;
6131;SDS011;3097;42.692;23.278;2023-06-26T13:06:52;7.77;;;6.63;;
6131;SDS011;3097;42.692;23.278;2023-06-26T13:09:20;7.40;;;6.60;;
6131;SDS011;3097;42.692;23.278;2023-06-26T13:11:46;6.73;;;6.13;;
6131;SDS011;3097;42.692;23.278;2023-06-26T13:14:11;7.27;;;6.67;;
6131;SDS011;3097;42.692;23.278;2023-06-26T13:16:37;7.40;;;6.17;;
6131;SDS011;3097;42.692;23.278;2023-06-26T13:19:02;6.97;;;6.30;;
6131;SDS011;3097;42.692;23.278;2023-06-26T13:21:28;6.57;;;6.07;;
6131;SDS011;3097;42.692;23.278;2023-06-26T13:23:53;6.73;;;6.23;;
6131;SDS011;3097;42.692;23.278;2023-06-26T13:26:20;7.07;;;6.37;;
6131;SDS011;3097;42.692;23.278;2023-06-26T13:28:47;9.50;;;5.97;;
6131;SDS011;3097;42.692;23.278;2023-06-26T13:31:13;7.90;;;5.93;;
6131;SDS011;3097;42.692;23.278;2023-06-26T13:33:39;6.60;;;6.00;;
6131;SDS011;3097;42.692;23.278;2023-06-26T13:36:04;6.17;;;5.70;;
6131;SDS011;3097;42.692;23.278;2023-06-26T13:38:32;6.90;;;6.37;;
6131;SDS011;3097;42.692;23.278;2023-06-26T13:40:58;9.30;;;6.10;;
6131;SDS011;3097;42.692;23.278;2023-06-26T13:43:26;6.60;;;6.00;;
6131;SDS011;3097;42.692;23.278;2023-06-26T13:45:52;6.40;;;5.90;;
6131;SDS011;3097;42.692;23.278;2023-06-26T13:48:19;6.83;;;6.23;;
6131;SDS011;3097;42.692;23.278;2023-06-26T13:50:45;6.57;;;6.07;;
6131;SDS011;3097;42.692;23.278;2023-06-26T13:53:11;9.13;;;6.80;;
6131;SDS011;3097;42.692;23.278;2023-06-26T13:55:37;8.10;;;7.30;;
6131;SDS011;3097;42.692;23.278;2023-06-26T13:58:03;9.63;;;7.80;;
6131;SDS011;3097;42.692;23.278;2023-06-26T14:00:31;8.23;;;7.00;;
6131;SDS011;3097;42.692;23.278;2023-06-26T14:02:58;6.63;;;6.03;;
6131;SDS011;3097;42.692;23.278;2023-06-26T14:05:24;6.83;;;6.30;;
6131;SDS011;3097;42.692;23.278;2023-06-26T14:07:50;7.43;;;6.83;;
6131;SDS011;3097;42.692;23.278;2023-06-26T14:10:15;7.80;;;6.60;;
6131;SDS011;3097;42.692;23.278;2023-06-26T14:12:41;7.47;;;6.77;;
6131;SDS011;3097;42.692;23.278;2023-06-26T14:15:06;11.13;;;7.10;;
6131;SDS011;3097;42.692;23.278;2023-06-26T14:17:32;6.97;;;6.37;;
6131;SDS011;3097;42.692;23.278;2023-06-26T14:19:58;6.57;;;6.07;;
6131;SDS011;3097;42.692;23.278;2023-06-26T14:22:24;6.83;;;6.33;;
6131;SDS011;3097;42.692;23.278;2023-06-26T14:24:50;7.77;;;6.07;;
6131;SDS011;3097;42.692;23.278;2023-06-26T14:27:15;6.77;;;6.23;;
6131;SDS011;3097;42.692;23.278;2023-06-26T14:29:41;6.53;;;5.93;;
6131;SDS011;3097;42.692;23.278;2023-06-26T14:32:06;7.20;;;6.50;;
6131;SDS011;3097;42.692;23.278;2023-06-26T14:34:32;7.07;;;6.37;;
6131;SDS011;3097;42.692;23.278;2023-06-26T14:36:58;6.90;;;6.27;;
6131;SDS011;3097;42.692;23.278;2023-06-26T14:39:23;7.17;;;6.60;;
6131;SDS011;3097;42.692;23.278;2023-06-26T14:41:49;7.13;;;6.43;;
6131;SDS011;3097;42.692;23.278;2023-06-26T14:44:15;6.63;;;5.97;;
6131;SDS011;3097;42.692;23.278;2023-06-26T14:46:41;8.60;;;6.17;;
6131;SDS011;3097;42.692;23.278;2023-06-26T14:49:07;7.43;;;6.33;;
6131;SDS011;3097;42.692;23.278;2023-06-26T14:51:33;10.50;;;6.40;;
6131;SDS011;3097;42.692;23.278;2023-06-26T14:53:59;11.30;;;9.23;;
6131;SDS011;3097;42.692;23.278;2023-06-26T14:56:25;6.80;;;6.20;;
6131;SDS011;3097;42.692;23.278;2023-06-26T14:58:50;6.97;;;6.30;;
6131;SDS011;3097;42.692;23.278;2023-06-26T15:01:19;7.70;;;6.20;;
6131;SDS011;3097;42.692;23.278;2023-06-26T15:03:45;6.70;;;6.07;;
6131;SDS011;3097;42.692;23.278;2023-06-26T15:06:11;8.53;;;6.27;;
6131;SDS011;3097;42.692;23.278;2023-06-26T15:08:37;6.70;;;6.10;;